TimeCDT,TemperatureF,Dew PointF,Humidity,Sea Level PressureIn,VisibilityMPH,Wind Direction,Wind SpeedMPH,Gust SpeedMPH,PrecipitationIn,Events,Conditions,WindDirDegrees,DateUTC
12:54 AM,71.1,63.0,75,30.02,10.0,NE,9.2,-,N/A,,Clear,40,2013-07-11 05:54:00
1:54 AM,70.0,62.1,76,30.01,10.0,NE,9.2,-,N/A,,Clear,40,2013-07-11 06:54:00
2:54 AM,68.0,61.0,78,30.02,10.0,NE,8.1,-,N/A,,Clear,40,2013-07-11 07:54:00
3:54 AM,66.0,60.1,81,30.03,10.0,NE,6.9,-,N/A,,Clear,40,2013-07-11 08:54:00
4:54 AM,66.0,60.1,81,30.04,10.0,NE,8.1,-,N/A,,Clear,40,2013-07-11 09:54:00
5:54 AM,64.9,60.1,84,30.05,10.0,NE,8.1,-,N/A,,Clear,40,2013-07-11 10:54:00
6:54 AM,66.9,60.1,79,30.05,10.0,NE,8.1,-,N/A,,Clear,50,2013-07-11 11:54:00
7:54 AM,71.1,62.1,73,30.07,10.0,NE,8.1,-,N/A,,Clear,50,2013-07-11 12:54:00
8:54 AM,73.9,62.1,66,30.07,10.0,NE,10.4,-,N/A,,Clear,50,2013-07-11 13:54:00
9:54 AM,78.1,62.1,58,30.07,10.0,ENE,6.9,-,N/A,,Clear,60,2013-07-11 14:54:00
10:54 AM,79.0,61.0,54,30.07,10.0,NE,8.1,-,N/A,,Clear,50,2013-07-11 15:54:00
11:54 AM,80.1,60.1,50,30.07,10.0,North,8.1,-,N/A,,Clear,10,2013-07-11 16:54:00
12:54 PM,82.0,60.1,47,30.06,10.0,NNE,8.1,-,N/A,,Clear,20,2013-07-11 17:54:00
1:54 PM,82.9,59.0,44,30.06,10.0,ENE,10.4,-,N/A,,Clear,70,2013-07-11 18:54:00
2:54 PM,82.9,60.1,46,30.06,10.0,ESE,5.8,-,N/A,,Clear,110,2013-07-11 19:54:00
3:54 PM,82.9,59.0,44,30.05,10.0,East,8.1,-,N/A,,Clear,90,2013-07-11 20:54:00
4:54 PM,82.9,61.0,47,30.04,10.0,ENE,6.9,-,N/A,,Clear,70,2013-07-11 21:54:00
5:54 PM,82.9,61.0,47,30.02,10.0,East,8.1,-,N/A,,Clear,90,2013-07-11 22:54:00
6:54 PM,81.0,60.1,49,30.01,10.0,East,10.4,-,N/A,,Clear,90,2013-07-11 23:54:00
7:54 PM,78.1,62.1,58,30.01,10.0,ENE,6.9,-,N/A,,Clear,70,2013-07-12 00:54:00
8:54 PM,73.0,62.1,68,30.02,10.0,ENE,5.8,-,N/A,,Clear,70,2013-07-12 01:54:00
9:54 PM,70.0,62.1,76,30.04,10.0,East,4.6,-,N/A,,Clear,80,2013-07-12 02:54:00
10:54 PM,69.1,61.0,75,30.05,10.0,East,4.6,-,N/A,,Clear,90,2013-07-12 03:54:00
11:54 PM,66.9,60.1,79,30.05,10.0,East,5.8,-,N/A,,Clear,90,2013-07-12 04:54:00